Airfield :
LOGIN :

Register | Disclaimer

   EN    FR    IT 

 










Legend :    VFR   Marginal VFR   IFR   Intensive IFR   Very Intensive IFR
Visi :
Ceiling :
>= 8 km
>= 3000ft
5 to 8 km
1000 to 3000 ft
1500m to 5 km
500 to 1000 ft
800 to 1500m
200 to 500 ft
< 800m
< 200 ft
Symbols :   Thunderstorms  Fog  Heavy snow  Heavy precipitations  Wind > 20 kt
SIGMETs :     Misc.  Thunderstorms  Icing  Turbulence  Mountain Waves  Volcanic Ashes







- Airport Elevation : 499 ft
- IATA code : TLS
- Download approach charts


LFBO - Toulouse / Blagnac

CURRENT METAR :
  • 220400Z AUTO 24004KT 190V280 9999 SCT007 14/13 Q1021

EXPIRED METARs :
  • 220330Z AUTO 19004KT CAVOK 13/12 Q1020
  • 220300Z AUTO 21004KT 9999 FEW010 14/12 Q1020
  • 220230Z AUTO 21004KT 180V240 CAVOK 14/12 Q1020
  • 220200Z AUTO 20003KT CAVOK 14/12 Q1020
  • 220130Z AUTO 22004KT CAVOK 15/13 Q1020

TAF TAF LFBO
Valid from the 21 at 18:00 until the 23 at 00:00 UTC


211700Z 2118/2224 28006KT CAVOK
BECMG 2200/2202 BKN008
PROB40
TEMPO 2203/2207 4000 BR BKN004
BECMG 2208/2210 SCT012
BECMG 2211/2213 CAVOK
ATIS : +33 5 62 74 66 36
No reported NOTAMs for that airfield.



MET'MAP, your aeronautical weather chart ! - Copyright ORBIFLY December 2007 - Disclaimer

ORBIFLY MET'MAP TEAM :

Programming & Development : Alexandra Zaïnal
Concept & Development : Baudouin d'Aumeries
Co-Development & Prog : Marc-Olivier Méhu
Technical & hardware support : Manuel Goepfert

Contact : metmap@orbifly.com




SOURCES & CREDITS :

   NOAA